< < Back
Terminal Aerodrome Forecast


Current Version              Previous Versions:   1  2  3  4  5  6  7  8  9  

Terminal Aerodrome Forecast

102
FTUS44 KOHX 191000 AAB
TAFCSV
TAF AMD
KCSV 191001Z 1910/2006 00000KT P6SM SCT045
      TEMPO 1910/1913 4SM BR
     FM191500 12004KT P6SM SCT030=



Latest METAR

568
SAUS70 KWBC 191800 RRJ
MTRCSV
METAR KCSV 191753Z AUTO 13006KT 10SM BKN040 OVC050 25/14 A3013 RMK AO2
SLP186 T02500144 10250 20144 58002


USA.gov is the U.S. government's official web portal to all federal, state and local government web resources and services.